Latest Weather Observations for Beaudesert AWS

IDQ60901

Issued at 4:21 pm EST Sunday 15 September 2019 (issued every 10 minutes, with the page automatically refreshed every 10 minutes)

About weather observations | Map of Brisbane area stations | Latest observations for Brisbane area | Other Formats
Station Details ID: 040983 Name: BEAUDESERT DRUMLEY STREET Lat: -27.97 Lon: 152.99 Height: 47.81 m
Data from the previous 72 hours. | See also: Recent months at Beaudesert AWS
Date/Time
EST
Temp
°C
App
Temp
°C
Dew
Point
°C
Rel
Hum
%
Delta-T
°C
Wind Press
QNH
hPa
Press
MSL
hPa
Rain since
9am
mm
Dir  Spd
km/h
Gust
km/h
Spd
kts
Gust
kts
15/04:00pm 24.8 21.8 7.9 34 9.0 NNE 13 26 7 14 1021.2 1021.1 0.0
15/03:30pm 25.9 22.9 7.5 31 9.8 N 13 24 7 13 1020.9 1020.8 0.0
15/03:00pm 26.1 23.4 7.2 30 10.0 NNE 11 19 6 10 1020.9 1020.8 0.0
15/02:30pm 27.0 24.8 6.4 27 10.8 N 7 15 4 8 1021.2 1021.1 0.0
15/02:00pm 26.4 23.9 6.4 28 10.4 N 9 15 5 8 1021.6 1021.5 0.0
15/01:30pm 26.5 23.4 5.5 26 10.8 NW 11 17 6 9 1022.0 1022.0 0.0
15/01:00pm 26.2 23.9 7.3 30 10.0 NNW 9 28 5 15 1022.5 1022.5 0.0
15/12:30pm 24.9 23.1 8.0 34 9.0 WNW 7 13 4 7 1023.1 1023.0 0.0
15/12:00pm 24.7 23.3 9.4 38 8.3 NNW 7 15 4 8 1023.7 1023.6 0.0
15/11:30am 23.3 21.9 9.7 42 7.4 W 7 17 4 9 1024.2 1024.1 0.0
15/11:00am 23.1 21.9 10.2 44 7.0 S 7 15 4 8 1024.6 1024.5 0.0
15/10:30am 22.2 21.3 10.7 48 6.3 S 6 13 3 7 1024.9 1024.8 0.0
15/10:00am 21.0 20.3 10.2 50 5.8 ESE 4 9 2 5 1025.4 1025.3 0.0
15/09:30am 19.7 19.1 10.4 55 5.0 SSW 4 9 2 5 1025.8 1025.7 0.0
15/09:00am 18.9 18.5 11.0 60 4.3 SSW 4 6 2 3 1026.0 1025.9 0.0
15/08:30am 17.1 17.0 9.5 61 4.0 CALM 0 4 0 2 1026.1 1026.0 0.0
15/08:00am 14.4 14.2 9.2 71 2.6 CALM 0 0 0 0 1026.1 1026.0 0.0
15/07:30am 11.6 11.3 8.5 81 1.5 CALM 0 0 0 0 1025.8 1025.7 0.0
15/07:00am - - - - - S 4 6 2 3 1025.4 1025.3 0.0
15/06:30am - - - - - CALM 0 0 0 0 1024.9 1024.8 0.0
15/06:00am 6.4 5.4 5.4 93 0.4 CALM 0 0 0 0 1024.5 1024.4 0.0
15/05:30am 5.9 4.6 4.2 89 0.7 CALM 0 0 0 0 1024.2 1024.1 0.0
15/05:00am 6.0 4.7 4.2 88 0.8 CALM 0 0 0 0 1024.0 1023.9 0.0
15/04:30am 6.2 4.9 4.2 87 0.9 CALM 0 0 0 0 1023.7 1023.6 0.0
15/04:00am 6.1 4.7 3.6 84 1.0 CALM 0 0 0 0 1023.5 1023.4 0.0
15/03:30am 6.5 5.1 3.7 82 1.2 CALM 0 0 0 0 1023.3 1023.2 0.0
15/03:00am 6.6 5.2 3.6 81 1.3 CALM 0 0 0 0 1023.3 1023.2 0.0
15/02:30am 8.0 6.8 4.8 80 1.4 CALM 0 0 0 0 1023.2 1023.1 0.0
15/02:00am 7.1 5.7 3.7 79 1.4 CALM 0 0 0 0 1023.4 1023.3 0.0
15/01:30am 8.2 6.9 4.0 75 1.8 CALM 0 0 0 0 1023.6 1023.5 0.0
15/01:00am 9.0 7.7 4.2 72 2.1 CALM 0 0 0 0 1023.8 1023.7 0.0
15/12:30am 9.3 8.0 4.3 71 2.2 CALM 0 0 0 0 1023.8 1023.7 0.0
15/12:00am 9.4 7.9 3.2 65 2.7 CALM 0 0 0 0 1023.7 1023.6 0.0
 
Date/Time
EST
Temp
°C
App
Temp
°C
Dew
Point
°C
Rel
Hum
%
Delta-T
°C
Wind Press
QNH
hPa
Press
MSL
hPa
Rain since
9am
mm
Dir  Spd
km/h
Gust
km/h
Spd
kts
Gust
kts
14/11:30pm 11.6 10.2 3.4 57 3.6 CALM 0 0 0 0 1023.7 1023.6 0.0
14/11:00pm 12.3 10.9 3.3 54 4.0 CALM 0 0 0 0 1023.7 1023.6 0.0
14/10:30pm 14.3 13.3 5.4 55 4.2 CALM 0 0 0 0 1023.5 1023.4 0.0
14/10:00pm 14.7 13.1 4.4 50 4.8 S 2 4 1 2 1023.5 1023.4 0.0
14/09:30pm 14.8 13.4 3.6 47 5.1 CALM 0 0 0 0 1023.6 1023.5 0.0
14/09:00pm 14.1 12.5 2.4 45 5.1 CALM 0 0 0 0 1023.3 1023.2 0.0
14/08:30pm 15.3 13.8 2.8 43 5.6 CALM 0 0 0 0 1023.1 1023.0 0.0
14/08:00pm 17.3 15.6 1.7 35 7.0 CALM 0 0 0 0 1022.7 1022.7 0.0
14/07:30pm 18.2 15.1 0.4 30 7.8 S 6 7 3 4 1022.1 1022.1 0.0
14/07:00pm 19.8 16.9 1.7 30 8.2 SSE 6 9 3 5 1021.5 1021.4 0.0
14/06:30pm 21.5 17.4 2.2 28 9.0 SE 13 20 7 11 1020.8 1020.7 0.0
14/06:00pm 22.3 19.0 4.8 32 8.6 ESE 11 26 6 14 1019.8 1019.7 0.0
14/05:30pm 24.3 19.3 6.6 32 9.2 E 22 35 12 19 1018.3 1018.2 0.0
14/05:00pm 28.1 23.9 -7.7 9 14.7 E 7 15 4 8 1017.4 1017.3 0.0
14/04:30pm 29.3 25.2 -8.3 8 15.5 ENE 6 7 3 4 1017.1 1017.0 0.0
14/04:00pm 30.3 27.1 -7.6 8 15.9 N 2 6 1 3 1017.1 1017.0 0.0
14/03:30pm 30.3 26.9 -9.3 7 16.2 WNW 2 13 1 7 1017.0 1016.9 0.0
14/03:00pm 30.5 26.7 -5.9 9 15.8 WNW 6 13 3 7 1017.0 1016.9 0.0
14/02:30pm 29.7 26.3 -5.1 10 15.2 W 4 15 2 8 1017.1 1017.0 0.0
14/02:00pm 29.6 25.9 -2.8 12 14.7 WNW 7 15 4 8 1017.5 1017.4 0.0
14/01:30pm 29.1 25.7 -2.1 13 14.3 WNW 6 11 3 6 1018.0 1017.9 0.0
14/01:00pm 28.4 24.6 -0.7 15 13.6 NW 9 20 5 11 1018.6 1018.5 0.0
14/12:30pm 27.4 23.5 -1.5 15 13.2 WNW 9 24 5 13 1019.3 1019.2 0.0
14/12:00pm 27.1 24.1 0.8 18 12.5 WSW 6 9 3 5 1019.8 1019.7 0.0
14/11:30am 26.3 23.1 2.9 22 11.5 NW 9 13 5 7 1020.4 1020.3 0.0
14/11:00am 25.1 23.0 6.8 31 9.5 NW 7 17 4 9 1021.1 1021.0 0.0
14/10:30am 23.8 22.7 8.6 38 8.1 NW 4 9 2 5 1021.8 1021.7 0.0
14/10:00am 21.3 20.2 8.6 44 6.7 W 4 9 2 5 1022.3 1022.3 0.0
14/09:30am 20.5 19.9 8.8 47 6.2 SSE 2 6 1 3 1022.9 1022.8 0.0
14/09:00am 19.0 18.8 8.9 52 5.3 CALM 0 2 0 1 1023.5 1023.4 0.0
14/08:30am 16.3 15.1 8.0 58 4.2 SE 4 6 2 3 1023.7 1023.6 0.0
14/08:00am 13.1 12.4 6.9 66 3.0 CALM 0 0 0 0 1023.6 1023.5 0.0
14/07:30am 10.6 9.8 6.6 76 1.9 CALM 0 4 0 2 1023.3 1023.2 0.0
14/07:00am 8.2 7.3 6.0 86 1.0 CALM 0 0 0 0 1023.3 1023.2 0.0
14/06:30am 5.9 4.7 4.4 90 0.6 CALM 0 0 0 0 1023.1 1023.0 0.0
14/06:00am 7.0 6.0 5.8 92 0.5 CALM 0 0 0 0 1022.7 1022.7 0.0
14/05:30am 7.1 5.7 5.6 90 0.7 SSE 2 2 1 1 1022.4 1022.4 0.0
14/05:00am 6.7 5.2 4.9 88 0.8 SSE 2 4 1 2 1022.4 1022.4 0.0
14/04:30am 5.3 3.8 3.2 86 0.9 CALM 0 0 0 0 1022.3 1022.3 0.0
14/04:00am 7.0 5.9 5.3 89 0.8 CALM 0 0 0 0 1022.1 1022.1 0.0
14/03:30am 5.8 4.4 3.6 86 0.9 CALM 0 2 0 1 1022.0 1022.0 0.0
14/03:00am 6.5 5.3 4.7 88 0.8 CALM 0 0 0 0 1022.0 1022.0 0.0
14/02:30am - - - - - CALM 0 0 0 0 1022.0 1022.0 0.0
14/02:00am 7.1 5.9 4.6 84 1.1 CALM 0 0 0 0 1022.2 1022.2 0.0
14/01:30am 7.2 5.8 3.6 78 1.5 CALM 0 0 0 0 1022.7 1022.7 0.0
14/01:00am 7.7 6.4 3.9 77 1.6 CALM 0 0 0 0 1022.9 1022.8 0.0
14/12:30am 7.9 6.4 3.2 72 2.0 CALM 0 0 0 0 1023.2 1023.1 0.0
14/12:00am 9.0 7.8 4.6 74 1.9 CALM 0 0 0 0 1023.2 1023.1 0.0
 
Date/Time
EST
Temp
°C
App
Temp
°C
Dew
Point
°C
Rel
Hum
%
Delta-T
°C
Wind Press
QNH
hPa
Press
MSL
hPa
Rain since
9am
mm
Dir  Spd
km/h
Gust
km/h
Spd
kts
Gust
kts
13/11:30pm 9.1 7.8 3.9 70 2.3 CALM 0 0 0 0 1023.3 1023.2 0.0
13/11:00pm 10.7 9.7 5.5 70 2.4 CALM 0 0 0 0 1023.3 1023.2 0.0
13/10:30pm 10.6 9.4 4.5 66 2.7 CALM 0 0 0 0 1023.2 1023.1 0.0
13/10:00pm 10.8 9.2 2.6 57 3.5 CALM 0 0 0 0 1023.0 1022.9 0.0
13/09:30pm 12.7 11.5 4.4 57 3.8 CALM 0 0 0 0 1022.5 1022.5 0.0
13/09:00pm 12.3 10.7 2.5 51 4.3 CALM 0 0 0 0 1022.5 1022.5 0.0
13/08:30pm 14.9 13.3 2.4 43 5.6 CALM 0 0 0 0 1022.2 1022.2 0.0
13/08:00pm 16.4 14.4 2.1 38 6.4 SSE 2 4 1 2 1021.9 1021.9 0.0
13/07:30pm 17.4 15.2 1.0 33 7.2 SSE 2 7 1 4 1021.4 1021.3 0.0
13/07:00pm 19.9 16.9 1.8 30 8.3 E 7 11 4 6 1020.9 1020.8 0.0
13/06:30pm 20.7 17.0 0.0 25 9.2 ESE 9 17 5 9 1020.3 1020.2 0.0
13/06:00pm 22.1 18.1 -2.6 19 10.5 ENE 9 17 5 9 1020.1 1020.0 0.0
13/05:30pm 23.4 19.6 -5.6 14 11.9 E 6 15 3 8 1019.4 1019.3 0.0
13/05:00pm 25.3 20.5 -6.1 12 12.9 E 11 19 6 10 1018.6 1018.5 0.0
13/04:30pm 27.0 21.6 -8.5 9 14.2 ENE 13 32 7 17 1018.0 1017.9 0.0
13/04:00pm 28.3 23.4 -12.7 6 15.4 S 9 17 5 9 1017.7 1017.6 0.0
13/03:30pm 28.6 23.7 -12.4 6 15.6 SE 9 20 5 11 1017.6 1017.5 0.0
13/03:00pm 29.1 24.2 -12.1 6 15.8 S 9 19 5 10 1017.5 1017.4 0.0
13/02:30pm 29.1 23.7 -14.3 5 16.0 SW 11 19 6 10 1017.6 1017.5 0.0
13/02:00pm 29.1 23.0 -12.1 6 15.8 S 15 28 8 15 1017.6 1017.5 0.0
13/01:30pm 28.9 23.2 -12.2 6 15.7 SSW 13 22 7 12 1017.8 1017.7 0.0
13/01:00pm 29.1 23.0 -12.1 6 15.8 SSW 15 26 8 14 1018.1 1018.0 0.0
13/12:30pm 28.6 21.8 -12.4 6 15.6 SSW 19 32 10 17 1018.5 1018.4 0.0
13/12:00pm 27.9 22.9 -7.9 9 14.6 S 11 22 6 12 1018.7 1018.6 0.0
13/11:30am 26.2 23.9 4.6 25 10.9 SSE 6 11 3 6 1019.3 1019.2 0.0
13/11:00am 24.1 22.8 7.7 35 8.6 W 4 11 2 6 1019.9 1019.8 0.0
13/10:30am 22.9 21.2 7.4 37 8.1 NW 6 9 3 5 1020.5 1020.4 0.0
13/10:00am 21.3 20.1 8.2 43 6.8 SSE 4 6 2 3 1020.9 1020.8 0.0
13/09:30am 19.6 18.7 10.6 56 4.9 SSE 6 9 3 5 1021.2 1021.1 0.0
13/09:00am 17.6 17.5 10.9 65 3.6 SE 2 6 1 3 1021.6 1021.5 0.0
13/08:30am 15.1 14.5 10.5 74 2.4 SE 4 6 2 3 1022.0 1022.0 0.0
13/08:00am 12.1 12.2 10.2 88 1.0 CALM 0 0 0 0 1022.1 1022.1 0.0
13/07:30am 9.6 9.5 9.3 98 0.1 CALM 0 0 0 0 1021.9 1021.9 0.0
13/07:00am 7.8 6.9 7.8 100 0.0 SE 2 4 1 2 1021.9 1021.9 0.0
13/06:30am 6.7 5.9 6.7 100 0.0 CALM 0 0 0 0 1021.8 1021.7 0.0
13/06:00am 5.2 4.1 5.1 99 0.0 CALM 0 0 0 0 1021.5 1021.4 0.0
13/05:30am 5.8 4.8 5.4 97 0.2 CALM 0 0 0 0 1021.6 1021.5 0.0
13/05:00am 7.1 6.4 7.0 99 0.0 CALM 0 0 0 0 1021.6 1021.5 0.0
13/04:30am 7.4 6.8 7.3 99 0.0 CALM 0 0 0 0 1021.3 1021.2 0.0
13/04:00am 7.2 6.4 6.6 96 0.3 CALM 0 0 0 0 1021.1 1021.0 0.0
13/03:30am 8.1 7.6 7.8 98 0.1 CALM 0 0 0 0 1021.2 1021.1 0.0
13/03:00am 8.4 7.9 7.8 96 0.3 CALM 0 0 0 0 1021.2 1021.1 0.0
13/02:30am 7.5 6.5 5.8 89 0.8 CALM 0 0 0 0 1021.6 1021.5 0.0
13/02:00am 9.8 9.3 9.2 96 0.3 SE 2 4 1 2 1021.8 1021.7 0.0
13/01:30am 9.9 9.6 8.8 93 0.5 CALM 0 0 0 0 1022.2 1022.2 0.0
13/01:00am 10.2 9.7 9.3 94 0.4 SE 2 4 1 2 1022.5 1022.5 0.0
13/12:30am 10.1 10.0 9.3 95 0.4 CALM 0 0 0 0 1022.9 1022.8 0.0
13/12:00am 9.9 9.6 8.8 93 0.5 CALM 0 2 0 1 1023.3 1023.2 0.0
 
Date/Time
EST
Temp
°C
App
Temp
°C
Dew
Point
°C
Rel
Hum
%
Delta-T
°C
Wind Press
QNH
hPa
Press
MSL
hPa
Rain since
9am
mm
Dir  Spd
km/h
Gust
km/h
Spd
kts
Gust
kts
12/11:30pm 9.5 9.0 7.9 90 0.8 CALM 0 0 0 0 1023.5 1023.4 0.0
12/11:00pm - - - - - CALM 0 0 0 0 1023.5 1023.4 0.0
12/10:30pm 10.4 9.9 7.8 84 1.3 CALM 0 0 0 0 1023.7 1023.6 0.0
12/10:00pm 11.9 11.7 8.9 82 1.5 CALM 0 0 0 0 1023.5 1023.4 0.0
12/09:30pm 13.7 13.8 10.3 80 1.8 CALM 0 0 0 0 1023.6 1023.5 0.0
12/09:00pm 13.7 13.3 9.7 77 2.0 NE 2 4 1 2 1023.7 1023.6 0.0
12/08:30pm 14.3 13.7 9.1 71 2.7 NE 2 4 1 2 1023.7 1023.6 0.0
12/08:00pm 15.3 14.7 8.8 65 3.3 NE 2 4 1 2 1023.8 1023.7 0.0
12/07:30pm 16.8 15.5 9.2 61 3.9 NNE 6 11 3 6 1023.7 1023.6 0.0
12/07:00pm 17.3 16.3 9.0 58 4.3 NE 4 7 2 4 1023.4 1023.3 0.0
12/06:30pm 18.1 17.1 8.9 55 4.8 NE 4 7 2 4 1022.7 1022.7 0.0
12/06:00pm 19.3 17.8 9.2 52 5.3 NNE 7 19 4 10 1022.3 1022.3 0.0
12/05:30pm 20.5 18.4 8.2 45 6.4 NE 9 17 5 9 1021.9 1021.9 0.0
12/05:00pm 21.9 18.6 6.6 37 7.8 NNE 13 26 7 14 1021.5 1021.4 0.0
12/04:30pm 23.5 20.0 5.4 31 9.1 NE 13 26 7 14 1021.4 1021.3 0.0

Latest Capital City Observations: Canberra | Sydney | Melbourne | Brisbane | Adelaide | Perth | Hobart | Darwin

Other formats

Comma delimited format used in spreadsheet applications
http://www.bom.gov.au/fwo/IDQ60901/IDQ60901.95575.axf

JavaScript Object Notation format (JSON) in row-major order
http://www.bom.gov.au/fwo/IDQ60901/IDQ60901.95575.json

Data quality

Most of these data are generated automatically and are frequently updated. Quality checks on data are not normally performed. It is possible for incorrect values to appear. Refer to information at About Latest Weather Observations and please check the disclaimer before using these data.